createdAt,value
2024-05-09T00:06:16.778Z,6.90
2024-05-09T00:08:44.662Z,7.10
2024-05-09T00:11:14.229Z,7.10
2024-05-09T00:13:44.622Z,7.20
2024-05-09T00:16:16.078Z,7.10
2024-05-09T00:18:44.458Z,6.90
2024-05-09T00:21:13.376Z,7.40
2024-05-09T00:23:41.318Z,7.20
2024-05-09T00:26:09.401Z,8.20
2024-05-09T00:28:39.423Z,6.90
2024-05-09T00:31:20.351Z,7.00
2024-05-09T00:33:57.485Z,6.90
2024-05-09T00:36:34.613Z,6.80
2024-05-09T00:39:15.579Z,7.70
2024-05-09T00:42:06.006Z,6.70
2024-05-09T00:44:37.368Z,6.30
2024-05-09T00:47:07.867Z,6.60
2024-05-09T00:49:51.135Z,6.80
2024-05-09T00:52:19.105Z,6.40
2024-05-09T00:54:47.587Z,6.60
2024-05-09T00:57:26.839Z,6.90
2024-05-09T00:59:55.664Z,6.60
2024-05-09T01:02:40.928Z,7.00
2024-05-09T01:05:11.703Z,6.70
2024-05-09T01:07:39.685Z,6.60
2024-05-09T01:10:13.947Z,7.10
2024-05-09T01:12:45.119Z,6.00
2024-05-09T01:15:15.460Z,6.10
2024-05-09T01:17:43.507Z,6.00
2024-05-09T01:20:19.842Z,6.70
2024-05-09T01:22:52.725Z,6.50
2024-05-09T01:25:20.742Z,6.20
2024-05-09T01:27:48.730Z,6.30
2024-05-09T01:30:21.027Z,6.70
2024-05-09T01:32:53.271Z,6.40
2024-05-09T01:35:24.735Z,6.20
2024-05-09T01:37:53.018Z,7.70
2024-05-09T01:40:33.346Z,7.90
2024-05-09T01:43:05.409Z,10.10
2024-05-09T01:45:38.257Z,12.60
2024-05-09T01:48:09.281Z,12.80
2024-05-09T01:50:41.572Z,10.10
2024-05-09T01:53:44.063Z,8.60
2024-05-09T01:56:32.168Z,8.30
2024-05-09T01:59:05.573Z,7.50
2024-05-09T02:01:56.462Z,7.20
2024-05-09T02:04:35.427Z,8.10
2024-05-09T02:07:05.548Z,8.80
2024-05-09T02:09:38.871Z,8.60
2024-05-09T02:12:07.363Z,8.50
2024-05-09T02:14:50.052Z,8.10
2024-05-09T02:17:31.915Z,9.30
2024-05-09T02:19:59.894Z,9.80
2024-05-09T02:22:28.824Z,8.60
2024-05-09T02:24:59.880Z,7.90
2024-05-09T02:27:35.169Z,6.80
2024-05-09T02:30:04.706Z,7.90
2024-05-09T02:32:36.361Z,7.10
2024-05-09T02:35:22.022Z,6.60
2024-05-09T02:37:50.116Z,6.00
2024-05-09T02:40:33.194Z,7.00
2024-05-09T02:43:19.903Z,7.00
2024-05-09T02:45:51.489Z,7.20
2024-05-09T02:48:19.742Z,7.30
2024-05-09T02:50:47.783Z,6.00
2024-05-09T02:53:20.453Z,6.50
2024-05-09T02:56:28.516Z,6.30
2024-05-09T03:03:39.140Z,6.60
2024-05-09T03:06:19.216Z,5.20
2024-05-09T03:08:57.222Z,6.00
2024-05-09T03:11:27.929Z,5.80
2024-05-09T03:14:03.256Z,6.70
2024-05-09T03:16:44.202Z,5.90
2024-05-09T03:19:12.469Z,5.50
2024-05-09T03:21:45.753Z,5.70
2024-05-09T03:24:14.787Z,5.20
2024-05-09T03:26:47.134Z,5.40
2024-05-09T03:29:15.889Z,5.50
2024-05-09T03:31:47.302Z,5.00
2024-05-09T03:34:24.261Z,4.50
2024-05-09T03:37:00.614Z,5.60
2024-05-09T03:39:28.393Z,6.10
2024-05-09T03:42:19.197Z,5.90
2024-05-09T03:44:55.591Z,6.50
2024-05-09T03:47:23.391Z,6.80
2024-05-09T03:49:53.784Z,5.90
2024-05-09T03:52:26.571Z,6.30
2024-05-09T03:54:54.417Z,5.70
2024-05-09T03:57:22.476Z,5.50
2024-05-09T03:59:59.379Z,5.80
2024-05-09T04:02:43.038Z,9.10
2024-05-09T04:05:26.839Z,10.60
2024-05-09T04:07:57.340Z,5.90
2024-05-09T04:10:33.417Z,5.70
2024-05-09T04:13:03.191Z,6.30
2024-05-09T04:15:31.479Z,6.00
2024-05-09T04:17:59.868Z,6.40
2024-05-09T04:20:37.016Z,5.60
2024-05-09T04:23:09.380Z,5.80
2024-05-09T04:25:37.672Z,6.40
2024-05-09T04:28:05.431Z,5.40
2024-05-09T04:30:38.639Z,5.60
2024-05-09T04:33:11.544Z,5.30
2024-05-09T04:35:44.891Z,5.40
2024-05-09T04:38:13.271Z,4.20
2024-05-09T04:40:41.076Z,4.10
2024-05-09T04:43:13.794Z,3.60
2024-05-09T04:45:41.518Z,3.20
2024-05-09T04:48:09.290Z,2.70
2024-05-09T04:50:39.055Z,3.50
2024-05-09T04:53:09.038Z,3.10
2024-05-09T04:55:37.862Z,3.70
2024-05-09T04:58:07.954Z,3.50
2024-05-09T05:00:37.667Z,3.10
2024-05-09T05:03:08.319Z,3.10
2024-05-09T05:05:50.402Z,3.80
2024-05-09T05:08:24.375Z,3.10
2024-05-09T05:10:52.259Z,2.90
2024-05-09T05:13:21.360Z,3.10
2024-05-09T05:15:51.061Z,4.10
2024-05-09T05:18:19.109Z,3.50
2024-05-09T05:20:47.009Z,3.90
2024-05-09T05:23:15.612Z,4.30
2024-05-09T05:25:43.847Z,4.00
2024-05-09T05:28:11.603Z,3.20
2024-05-09T05:30:40.695Z,3.40
2024-05-09T05:33:12.799Z,2.40
2024-05-09T05:35:40.915Z,2.40
2024-05-09T05:38:08.830Z,2.30
2024-05-09T05:40:38.329Z,2.70
2024-05-09T05:43:11.008Z,2.80
2024-05-09T05:45:39.105Z,2.30
2024-05-09T05:48:07.828Z,2.30
2024-05-09T05:50:37.901Z,2.50
2024-05-09T05:53:07.734Z,1.90
2024-05-09T05:55:36.763Z,2.40
2024-05-09T05:58:04.621Z,2.20
2024-05-09T06:03:02.606Z,1.90
2024-05-09T06:05:30.539Z,2.20
2024-05-09T06:07:58.092Z,1.60
2024-05-09T06:10:30.201Z,1.90
2024-05-09T06:13:04.898Z,1.40
2024-05-09T06:15:32.370Z,1.70
2024-05-09T06:18:00.233Z,1.90
2024-05-09T06:20:35.444Z,1.90
2024-05-09T06:23:05.892Z,1.90
2024-05-09T06:25:34.162Z,1.80
2024-05-09T06:28:01.758Z,1.80
2024-05-09T06:30:37.867Z,2.30
2024-05-09T06:33:10.252Z,2.20
2024-05-09T06:35:39.456Z,1.80
2024-05-09T06:38:10.222Z,1.90
2024-05-09T06:40:44.154Z,1.70
2024-05-09T06:43:13.018Z,1.70
2024-05-09T06:45:40.775Z,1.60
2024-05-09T06:48:09.252Z,1.40
2024-05-09T06:50:38.832Z,1.70
2024-05-09T06:53:08.180Z,1.70
2024-05-09T06:55:36.685Z,1.70
2024-05-09T06:58:05.354Z,1.80
2024-05-09T07:00:38.852Z,1.70
2024-05-09T07:03:09.269Z,2.00
2024-05-09T07:05:37.573Z,1.70
2024-05-09T07:08:05.928Z,1.90
2024-05-09T07:10:35.538Z,1.90
2024-05-09T07:13:14.174Z,2.00
2024-05-09T07:15:42.050Z,2.10
2024-05-09T07:18:13.818Z,1.60
2024-05-09T07:20:41.706Z,2.10
2024-05-09T07:23:10.181Z,2.10
2024-05-09T07:25:38.272Z,1.60
2024-05-09T07:28:09.633Z,1.90
2024-05-09T07:30:37.119Z,1.30
2024-05-09T07:33:05.001Z,1.80
2024-05-09T07:35:32.921Z,1.70
2024-05-09T07:38:00.754Z,2.20
2024-05-09T07:40:35.941Z,1.40
2024-05-09T07:43:04.991Z,1.00
2024-05-09T07:52:23.686Z,1.70
2024-05-09T07:53:39.114Z,1.10
2024-05-09T07:56:10.222Z,1.50
2024-05-09T07:58:39.120Z,1.60
2024-05-09T08:01:06.822Z,1.10
2024-05-09T08:03:34.712Z,1.20
2024-05-09T08:06:02.504Z,1.10
2024-05-09T08:08:30.278Z,0.90
2024-05-09T08:10:57.746Z,0.90
2024-05-09T08:13:25.221Z,1.30
2024-05-09T08:15:52.918Z,1.40
2024-05-09T08:18:20.758Z,1.00
2024-05-09T08:20:49.143Z,1.40
2024-05-09T08:23:17.565Z,1.00
2024-05-09T08:25:45.052Z,1.20
2024-05-09T08:28:12.902Z,1.30
2024-05-09T08:30:40.705Z,0.90
2024-05-09T08:33:08.511Z,1.50
2024-05-09T08:35:36.273Z,1.60
2024-05-09T08:38:04.218Z,1.10
2024-05-09T08:40:35.815Z,1.10
2024-05-09T08:43:10.431Z,1.20
2024-05-09T08:45:41.981Z,1.00
2024-05-09T08:48:11.791Z,1.50
2024-05-09T08:50:42.869Z,1.30
2024-05-09T08:53:10.715Z,1.10
2024-05-09T08:56:03.058Z,1.20
2024-05-09T08:58:31.607Z,1.20
2024-05-09T09:01:00.141Z,1.50
2024-05-09T09:03:30.089Z,1.20
2024-05-09T09:06:04.049Z,0.90
2024-05-09T09:08:31.672Z,1.50
2024-05-09T09:10:59.204Z,1.30
2024-05-09T09:13:29.324Z,1.20
2024-05-09T09:16:00.905Z,1.10
2024-05-09T09:18:30.028Z,1.00
2024-05-09T09:20:58.256Z,1.10
2024-05-09T09:23:29.391Z,1.20
2024-05-09T09:25:59.949Z,1.30
2024-05-09T09:28:27.604Z,1.30
2024-05-09T09:31:01.026Z,1.50
2024-05-09T09:33:31.231Z,1.30
2024-05-09T09:36:02.674Z,1.30
2024-05-09T09:38:30.891Z,1.20
2024-05-09T09:40:59.686Z,1.00
2024-05-09T09:43:27.676Z,0.90
2024-05-09T09:45:59.468Z,1.00
2024-05-09T09:48:27.306Z,1.50
2024-05-09T09:50:55.286Z,1.30
2024-05-09T09:53:23.617Z,1.30
2024-05-09T09:55:52.307Z,0.90
2024-05-09T09:58:20.121Z,1.30
2024-05-09T10:00:47.910Z,1.50
2024-05-09T10:03:15.608Z,1.80
2024-05-09T10:05:46.293Z,1.50
2024-05-09T10:08:15.849Z,1.20
2024-05-09T10:10:49.508Z,1.60
2024-05-09T10:13:22.225Z,1.60
2024-05-09T10:15:53.775Z,1.70
2024-05-09T10:18:28.096Z,1.60
2024-05-09T10:20:59.415Z,1.40
2024-05-09T10:23:29.878Z,1.60
2024-05-09T10:26:01.792Z,1.60
2024-05-09T10:28:30.212Z,1.20
2024-05-09T10:31:10.472Z,1.30
2024-05-09T10:33:52.128Z,1.80
2024-05-09T10:36:21.191Z,1.20
2024-05-09T10:38:49.444Z,1.40
2024-05-09T10:41:17.338Z,1.60
2024-05-09T10:43:44.979Z,1.50
2024-05-09T10:46:18.750Z,1.50
2024-05-09T10:48:47.275Z,1.60
2024-05-09T10:51:15.113Z,1.50
2024-05-09T10:53:46.377Z,1.70
2024-05-09T10:56:14.649Z,1.10
2024-05-09T10:58:42.383Z,1.30
2024-05-09T11:01:10.676Z,1.70
2024-05-09T11:03:41.170Z,1.40
2024-05-09T11:06:10.649Z,1.70
2024-05-09T11:08:38.743Z,1.80
2024-05-09T11:11:07.789Z,2.00
2024-05-09T11:13:37.015Z,2.00
2024-05-09T11:16:05.686Z,1.40
2024-05-09T11:18:37.072Z,1.60
2024-05-09T11:21:13.414Z,1.60
2024-05-09T11:23:41.777Z,1.50
2024-05-09T11:26:10.677Z,2.20
2024-05-09T11:28:38.434Z,2.00
2024-05-09T11:31:07.313Z,1.70
2024-05-09T11:33:38.938Z,1.90
2024-05-09T11:36:07.496Z,1.80
2024-05-09T11:38:35.440Z,1.70
2024-05-09T11:41:03.569Z,2.10
2024-05-09T11:43:31.408Z,2.30
2024-05-09T11:46:03.612Z,1.50
2024-05-09T11:48:32.277Z,2.00
2024-05-09T11:51:00.160Z,2.10
2024-05-09T11:53:28.045Z,1.80
2024-05-09T11:55:56.821Z,2.10
2024-05-09T11:58:24.435Z,2.10
2024-05-09T12:00:52.025Z,2.40
2024-05-09T12:03:20.548Z,2.00
2024-05-09T12:05:48.634Z,2.30
2024-05-09T12:08:18.188Z,2.30
2024-05-09T12:10:46.031Z,2.10
2024-05-09T12:13:14.039Z,2.30
2024-05-09T12:15:42.425Z,2.70
2024-05-09T12:18:10.044Z,2.30
2024-05-09T12:20:39.730Z,2.60
2024-05-09T12:23:09.414Z,3.30
2024-05-09T12:25:38.477Z,3.00
2024-05-09T12:28:06.678Z,2.40
2024-05-09T12:30:38.376Z,2.50
2024-05-09T12:33:09.624Z,2.10
2024-05-09T12:35:37.550Z,2.30
2024-05-09T12:38:05.184Z,2.50
2024-05-09T12:40:36.879Z,2.10
2024-05-09T12:43:07.453Z,1.90
2024-05-09T12:45:36.116Z,2.10
2024-05-09T12:48:06.405Z,2.00
2024-05-09T12:50:34.785Z,2.30
2024-05-09T12:53:03.751Z,2.20
2024-05-09T12:55:40.535Z,2.10
2024-05-09T12:58:16.981Z,2.10
2024-05-09T13:00:45.253Z,2.10
2024-05-09T13:03:13.149Z,2.80
2024-05-09T13:05:41.502Z,1.80
2024-05-09T13:08:09.541Z,2.10
2024-05-09T13:10:37.169Z,2.40
2024-05-09T13:13:04.911Z,2.20
2024-05-09T13:15:34.405Z,2.20
2024-05-09T13:18:03.662Z,2.70
2024-05-09T13:20:34.566Z,2.40
2024-05-09T13:23:04.881Z,2.50
2024-05-09T13:25:34.317Z,2.20
2024-05-09T13:28:02.426Z,2.40
2024-05-09T13:30:38.811Z,2.70
2024-05-09T13:33:11.449Z,2.00
2024-05-09T13:35:47.369Z,2.00
2024-05-09T13:38:18.948Z,2.10
2024-05-09T13:40:47.204Z,2.40
2024-05-09T13:43:15.167Z,2.80
2024-05-09T13:45:43.209Z,2.40
2024-05-09T13:48:10.957Z,2.00
2024-05-09T13:50:39.112Z,1.90
2024-05-09T13:53:07.823Z,2.10
2024-05-09T13:55:39.573Z,1.80
2024-05-09T13:58:07.783Z,2.30
2024-05-09T14:00:44.492Z,2.10
2024-05-09T14:03:18.410Z,1.90
2024-05-09T14:05:49.208Z,2.40
2024-05-09T14:08:19.221Z,1.70
2024-05-09T14:10:47.406Z,2.00
2024-05-09T14:13:15.317Z,2.10
2024-05-09T14:15:42.991Z,1.80
2024-05-09T14:18:13.380Z,2.40
2024-05-09T14:20:42.428Z,2.40
2024-05-09T14:23:10.479Z,1.70
2024-05-09T14:25:42.020Z,1.80
2024-05-09T14:28:11.928Z,2.10
2024-05-09T14:30:40.348Z,1.70
2024-05-09T14:33:09.066Z,1.80
2024-05-09T14:35:38.496Z,1.80
2024-05-09T14:38:07.350Z,2.00
2024-05-09T14:40:41.231Z,2.00
2024-05-09T14:43:12.752Z,2.10
2024-05-09T14:45:41.354Z,1.80
2024-05-09T14:48:09.676Z,1.90
2024-05-09T14:50:39.599Z,1.50
2024-05-09T14:53:09.389Z,1.80
2024-05-09T14:55:38.710Z,2.00
2024-05-09T14:58:07.327Z,2.10
2024-05-09T15:00:38.376Z,1.80
2024-05-09T15:03:07.831Z,2.00
2024-05-09T15:05:35.957Z,2.00
2024-05-09T15:08:07.708Z,2.00
2024-05-09T15:10:37.020Z,2.20
2024-05-09T15:13:07.250Z,1.90
2024-05-09T15:15:36.770Z,4.70
2024-05-09T15:18:05.530Z,1.70
2024-05-09T15:20:36.497Z,1.80
2024-05-09T15:23:05.530Z,2.40
2024-05-09T15:25:33.950Z,2.20
2024-05-09T15:28:01.740Z,2.20
2024-05-09T15:30:32.311Z,2.10
2024-05-09T15:33:05.039Z,2.00
2024-05-09T15:35:33.506Z,2.30
2024-05-09T15:38:02.516Z,2.20
2024-05-09T15:40:37.631Z,2.20
2024-05-09T15:43:09.318Z,2.80
2024-05-09T15:45:39.096Z,2.20
2024-05-09T15:48:07.910Z,1.80
2024-05-09T15:50:39.666Z,2.50
2024-05-09T15:53:10.855Z,2.90
2024-05-09T15:55:38.809Z,2.60
2024-05-09T15:58:07.342Z,1.90
2024-05-09T16:00:39.571Z,2.20
2024-05-09T16:03:10.636Z,2.50
2024-05-09T16:05:39.086Z,2.20
2024-05-09T16:08:07.242Z,1.80
2024-05-09T16:10:36.104Z,2.00
2024-05-09T16:13:04.228Z,2.00
2024-05-09T16:15:32.188Z,2.10
2024-05-09T16:18:00.254Z,2.20
2024-05-09T16:20:37.268Z,2.00
2024-05-09T16:23:08.752Z,2.10
2024-05-09T16:25:37.062Z,2.20
2024-05-09T16:28:10.174Z,2.30
2024-05-09T16:30:39.848Z,2.00
2024-05-09T16:33:08.701Z,2.00
2024-05-09T16:35:40.240Z,2.30
2024-05-09T16:38:08.061Z,2.30
2024-05-09T16:40:39.721Z,2.30
2024-05-09T16:43:10.084Z,2.30
2024-05-09T16:45:39.680Z,2.40
2024-05-09T16:48:07.842Z,2.10
2024-05-09T16:50:36.349Z,2.30
2024-05-09T16:53:05.844Z,2.40
2024-05-09T16:55:35.025Z,2.60
2024-05-09T16:58:05.545Z,2.60
2024-05-09T17:00:41.667Z,2.90
2024-05-09T17:03:14.291Z,2.10
2024-05-09T17:05:45.229Z,2.20
2024-05-09T17:08:12.877Z,2.20
2024-05-09T17:10:40.582Z,1.90
2024-05-09T17:13:09.733Z,2.20
2024-05-09T17:15:37.724Z,2.30
2024-05-09T17:18:06.498Z,2.40
2024-05-09T17:20:36.601Z,2.80
2024-05-09T17:23:12.090Z,2.50
2024-05-09T17:25:40.041Z,2.70
2024-05-09T17:28:08.545Z,3.20
2024-05-09T17:30:38.606Z,2.50
2024-05-09T17:33:09.128Z,2.50
2024-05-09T17:35:37.741Z,2.20
2024-05-09T17:38:05.933Z,2.10
2024-05-09T17:40:36.302Z,2.60
2024-05-09T17:43:07.238Z,3.40
2024-05-09T17:45:40.659Z,3.30
2024-05-09T17:48:10.781Z,3.20
2024-05-09T17:50:39.811Z,4.10
2024-05-09T17:53:07.888Z,5.60
2024-05-09T17:55:36.224Z,4.00
2024-05-09T17:58:04.901Z,3.50
2024-05-09T18:00:38.924Z,3.70
2024-05-09T18:03:11.352Z,4.00
2024-05-09T18:05:40.109Z,3.40
2024-05-09T18:08:08.146Z,2.60
2024-05-09T18:10:38.592Z,3.60
2024-05-09T18:13:08.347Z,3.60
2024-05-09T18:15:36.948Z,2.70
2024-05-09T18:18:05.200Z,3.20
2024-05-09T18:20:41.415Z,5.60
2024-05-09T18:23:14.087Z,5.40
2024-05-09T18:25:44.225Z,4.50
2024-05-09T18:28:11.782Z,4.70
2024-05-09T18:30:39.943Z,3.60
2024-05-09T18:33:09.396Z,3.10
2024-05-09T18:35:37.142Z,3.70
2024-05-09T18:38:04.981Z,3.70
2024-05-09T18:40:35.958Z,4.30
2024-05-09T18:43:07.166Z,5.10
2024-05-09T18:45:39.563Z,6.20
2024-05-09T18:48:08.512Z,6.20
2024-05-09T18:50:39.469Z,7.50
2024-05-09T18:53:09.668Z,8.30
2024-05-09T18:55:37.148Z,8.10
2024-05-09T18:58:04.941Z,5.80
2024-05-09T19:00:36.395Z,6.20
2024-05-09T19:03:08.055Z,6.20
2024-05-09T19:05:37.032Z,5.80
2024-05-09T19:08:05.071Z,6.00
2024-05-09T19:10:35.079Z,7.00
2024-05-09T19:13:08.176Z,6.50
2024-05-09T19:15:39.759Z,6.30
2024-05-09T19:18:07.935Z,5.80
2024-05-09T19:20:36.731Z,6.00
2024-05-09T19:23:05.870Z,5.80
2024-05-09T19:25:34.293Z,5.20
2024-05-09T19:28:01.815Z,5.60
2024-05-09T19:30:37.684Z,5.50
2024-05-09T19:33:09.436Z,8.30
2024-05-09T19:35:37.792Z,12.00
2024-05-09T19:38:05.604Z,14.30
2024-05-09T19:40:34.701Z,26.40
2024-05-09T19:43:04.346Z,30.50
2024-05-09T19:45:32.745Z,26.10
2024-05-09T19:48:00.869Z,12.00
2024-05-09T19:50:37.118Z,7.00
2024-05-09T19:53:10.223Z,6.20
2024-05-09T19:55:38.465Z,6.20
2024-05-09T19:58:07.428Z,5.80
2024-05-09T20:00:37.905Z,6.30
2024-05-09T20:03:08.227Z,6.50
2024-05-09T20:05:37.286Z,7.00
2024-05-09T20:08:05.572Z,6.90
2024-05-09T20:10:35.378Z,6.60
2024-05-09T20:13:05.783Z,7.30
2024-05-09T20:15:35.462Z,6.10
2024-05-09T20:18:03.817Z,6.60
2024-05-09T20:20:37.942Z,5.60
2024-05-09T20:23:09.999Z,6.20
2024-05-09T20:25:37.694Z,7.10
2024-05-09T20:28:08.323Z,15.60
2024-05-09T20:30:36.432Z,16.50
2024-05-09T20:33:06.896Z,21.10
2024-05-09T20:35:36.135Z,31.40
2024-05-09T20:38:04.616Z,24.70
2024-05-09T20:40:36.978Z,20.70
2024-05-09T20:43:08.259Z,17.30
2024-05-09T20:45:36.434Z,12.50
2024-05-09T20:48:04.367Z,12.80
2024-05-09T20:50:37.964Z,9.80
2024-05-09T20:53:09.307Z,11.80
2024-05-09T20:55:36.996Z,12.30
2024-05-09T20:58:04.880Z,12.80
2024-05-09T21:00:40.183Z,12.40
2024-05-09T21:03:12.342Z,12.60
2024-05-09T21:05:40.697Z,14.20
2024-05-09T21:08:08.825Z,15.80
2024-05-09T21:10:36.971Z,16.50
2024-05-09T21:13:05.867Z,14.00
2024-05-09T21:15:34.603Z,16.60
2024-05-09T21:18:02.586Z,17.00
2024-05-09T21:20:33.139Z,18.90
2024-05-09T21:23:01.427Z,19.50
2024-05-09T21:25:29.397Z,18.30
2024-05-09T21:27:57.233Z,20.00
2024-05-09T21:30:37.012Z,23.80
2024-05-09T21:33:10.372Z,27.90
2024-05-09T21:35:39.642Z,24.60
2024-05-09T21:38:07.383Z,24.90
2024-05-09T21:40:36.634Z,23.40
2024-05-09T21:43:06.337Z,23.70
2024-05-09T21:45:34.607Z,21.90
2024-05-09T21:48:06.262Z,22.10
2024-05-09T21:50:39.809Z,20.40
2024-05-09T21:53:10.723Z,20.70
2024-05-09T21:55:39.072Z,19.60
2024-05-09T21:58:06.940Z,19.90
2024-05-09T22:00:37.996Z,20.80
2024-05-09T22:03:07.997Z,16.50
2024-05-09T22:05:37.742Z,16.70
2024-05-09T22:08:05.994Z,16.10
2024-05-09T22:10:35.715Z,17.60
2024-05-09T22:13:07.774Z,16.30
2024-05-09T22:15:37.018Z,16.80
2024-05-09T22:18:07.226Z,16.90
2024-05-09T22:20:38.451Z,18.70
2024-05-09T22:23:07.779Z,20.10
2024-05-09T22:25:36.144Z,21.60
2024-05-09T22:28:04.369Z,21.80
2024-05-09T22:30:37.039Z,18.30
2024-05-09T22:33:08.491Z,19.20
2024-05-09T22:35:37.372Z,18.10
2024-05-09T22:38:08.435Z,17.10
2024-05-09T22:40:45.794Z,19.10
2024-05-09T22:43:19.007Z,21.50
2024-05-09T22:45:46.891Z,22.00
2024-05-09T22:48:14.926Z,24.70
2024-05-09T22:50:45.069Z,28.80
2024-05-09T22:53:14.784Z,28.40
2024-05-09T22:55:42.427Z,26.90
2024-05-09T22:58:10.113Z,24.80
2024-05-09T23:00:37.996Z,15.90
2024-05-09T23:03:05.947Z,13.70
2024-05-09T23:05:33.969Z,11.00
2024-05-09T23:08:02.279Z,14.20
2024-05-09T23:10:35.820Z,19.50
2024-05-09T23:13:06.738Z,14.60
2024-05-09T23:15:35.980Z,11.40
2024-05-09T23:18:03.929Z,9.00
2024-05-09T23:20:37.320Z,8.70
2024-05-09T23:23:07.787Z,7.30
2024-05-09T23:25:36.533Z,7.10
2024-05-09T23:28:04.231Z,7.30
2024-05-09T23:30:37.215Z,7.20
2024-05-09T23:33:09.430Z,8.10
2024-05-09T23:35:37.313Z,9.10
2024-05-09T23:38:04.833Z,7.80
2024-05-09T23:43:03.513Z,8.20
2024-05-09T23:45:31.155Z,8.20
2024-05-09T23:47:58.851Z,7.20
2024-05-09T23:50:33.437Z,7.10
2024-05-09T23:53:04.316Z,7.20
2024-05-09T23:55:32.420Z,7.90
2024-05-09T23:58:00.799Z,7.40
